sensor_id;sensor_type;location;lat;lon;timestamp;pressure;altitude;pressure_sealevel;temperature;humidity
70302;BME280;57706;56.326;43.882;2022-10-26T00:00:08;101496.53;;;3.49;52.40
70302;BME280;57706;56.326;43.882;2022-10-26T00:02:40;101497.00;;;3.41;52.20
70302;BME280;57706;56.326;43.882;2022-10-26T00:05:06;101500.41;;;3.42;51.75
70302;BME280;57706;56.326;43.882;2022-10-26T00:07:31;101506.44;;;3.42;51.61
70302;BME280;57706;56.326;43.882;2022-10-26T00:09:57;101502.06;;;3.43;52.05
70302;BME280;57706;56.326;43.882;2022-10-26T00:12:23;101503.94;;;3.41;50.96
70302;BME280;57706;56.326;43.882;2022-10-26T00:14:49;101511.53;;;3.44;51.95
70302;BME280;57706;56.326;43.882;2022-10-26T00:17:14;101515.84;;;3.45;51.67
70302;BME280;57706;56.326;43.882;2022-10-26T00:19:40;101513.31;;;3.43;50.58
70302;BME280;57706;56.326;43.882;2022-10-26T00:22:06;101521.19;;;3.42;50.68
70302;BME280;57706;56.326;43.882;2022-10-26T00:24:32;101516.00;;;3.42;51.76
70302;BME280;57706;56.326;43.882;2022-10-26T00:26:58;101512.47;;;3.43;52.06
70302;BME280;57706;56.326;43.882;2022-10-26T00:29:23;101521.84;;;3.46;51.69
70302;BME280;57706;56.326;43.882;2022-10-26T00:31:49;101516.50;;;3.49;51.62
70302;BME280;57706;56.326;43.882;2022-10-26T00:34:15;101520.13;;;3.46;50.91
70302;BME280;57706;56.326;43.882;2022-10-26T00:36:41;101521.66;;;3.34;50.00
70302;BME280;57706;56.326;43.882;2022-10-26T00:39:09;101525.25;;;3.32;50.66
70302;BME280;57706;56.326;43.882;2022-10-26T00:41:37;101526.34;;;3.27;50.96
70302;BME280;57706;56.326;43.882;2022-10-26T00:47:09;101533.63;;;3.37;50.75
70302;BME280;57706;56.326;43.882;2022-10-26T00:49:36;101518.53;;;3.27;50.54
70302;BME280;57706;56.326;43.882;2022-10-26T00:52:03;101525.72;;;3.08;49.89
70302;BME280;57706;56.326;43.882;2022-10-26T00:54:29;101527.03;;;3.15;50.63
70302;BME280;57706;56.326;43.882;2022-10-26T00:56:54;101531.31;;;3.16;50.48
70302;BME280;57706;56.326;43.882;2022-10-26T00:59:21;101531.31;;;3.16;50.44
70302;BME280;57706;56.326;43.882;2022-10-26T01:01:48;101530.63;;;3.12;50.17
70302;BME280;57706;56.326;43.882;2022-10-26T01:04:14;101530.63;;;3.12;50.58
70302;BME280;57706;56.326;43.882;2022-10-26T01:06:41;101536.31;;;3.19;50.52
70302;BME280;57706;56.326;43.882;2022-10-26T01:09:08;101536.31;;;3.19;51.14
70302;BME280;57706;56.326;43.882;2022-10-26T01:11:34;101536.00;;;3.25;51.09
70302;BME280;57706;56.326;43.882;2022-10-26T01:14:02;101538.50;;;3.11;51.61
70302;BME280;57706;56.326;43.882;2022-10-26T01:17:08;101538.38;;;3.14;50.80
70302;BME280;57706;56.326;43.882;2022-10-26T01:20:24;101534.34;;;3.08;51.16
70302;BME280;57706;56.326;43.882;2022-10-26T01:31:15;101536.66;;;3.29;51.55
70302;BME280;57706;56.326;43.882;2022-10-26T01:33:58;101542.34;;;3.36;51.00
70302;BME280;57706;56.326;43.882;2022-10-26T01:36:53;101551.44;;;3.28;51.24
70302;BME280;57706;56.326;43.882;2022-10-26T01:39:29;101545.16;;;3.00;52.13
70302;BME280;57706;56.326;43.882;2022-10-26T01:42:17;101546.75;;;2.87;52.75
70302;BME280;57706;56.326;43.882;2022-10-26T01:44:48;101551.25;;;2.67;52.05
70302;BME280;57706;56.326;43.882;2022-10-26T01:47:17;101550.00;;;2.74;50.99
70302;BME280;57706;56.326;43.882;2022-10-26T01:49:52;101554.59;;;2.69;50.94
70302;BME280;57706;56.326;43.882;2022-10-26T01:52:20;101552.78;;;2.71;51.35
70302;BME280;57706;56.326;43.882;2022-10-26T01:54:46;101559.31;;;2.79;51.46
70302;BME280;57706;56.326;43.882;2022-10-26T01:57:14;101556.78;;;2.93;50.33
70302;BME280;57706;56.326;43.882;2022-10-26T02:02:53;101552.78;;;2.87;50.51
70302;BME280;57706;56.326;43.882;2022-10-26T02:08:14;101561.84;;;2.96;50.65
70302;BME280;57706;56.326;43.882;2022-10-26T02:21:16;101572.88;;;3.16;50.89
70302;BME280;57706;56.326;43.882;2022-10-26T02:23:46;101575.66;;;3.13;51.00
70302;BME280;57706;56.326;43.882;2022-10-26T02:26:15;101580.06;;;3.11;51.77
70302;BME280;57706;56.326;43.882;2022-10-26T02:29:04;101580.25;;;3.08;51.91
70302;BME280;57706;56.326;43.882;2022-10-26T02:31:32;101578.75;;;3.03;51.62
70302;BME280;57706;56.326;43.882;2022-10-26T02:34:02;101574.25;;;3.07;51.96
70302;BME280;57706;56.326;43.882;2022-10-26T02:36:33;101578.59;;;3.07;52.07
70302;BME280;57706;56.326;43.882;2022-10-26T02:39:02;101583.59;;;3.10;51.94
70302;BME280;57706;56.326;43.882;2022-10-26T02:41:29;101582.59;;;3.12;51.77
70302;BME280;57706;56.326;43.882;2022-10-26T02:46:30;101588.28;;;3.19;51.24
70302;BME280;57706;56.326;43.882;2022-10-26T02:48:56;101580.94;;;3.11;50.97
70302;BME280;57706;56.326;43.882;2022-10-26T02:51:47;101590.47;;;3.11;51.75
70302;BME280;57706;56.326;43.882;2022-10-26T02:56:59;101593.69;;;3.00;50.71
70302;BME280;57706;56.326;43.882;2022-10-26T02:59:30;101598.03;;;2.99;50.84
70302;BME280;57706;56.326;43.882;2022-10-26T03:01:59;101592.66;;;3.02;50.34
70302;BME280;57706;56.326;43.882;2022-10-26T03:04:30;101598.63;;;3.05;50.56
70302;BME280;57706;56.326;43.882;2022-10-26T03:06:56;101595.06;;;2.73;50.57
70302;BME280;57706;56.326;43.882;2022-10-26T03:09:22;101600.38;;;2.88;50.60
70302;BME280;57706;56.326;43.882;2022-10-26T03:11:48;101591.34;;;2.95;50.58
70302;BME280;57706;56.326;43.882;2022-10-26T03:14:14;101597.69;;;3.06;50.99
70302;BME280;57706;56.326;43.882;2022-10-26T03:16:40;101607.56;;;3.15;51.10
70302;BME280;57706;56.326;43.882;2022-10-26T03:19:07;101591.81;;;3.18;51.17
70302;BME280;57706;56.326;43.882;2022-10-26T03:21:32;101609.69;;;3.08;50.78
70302;BME280;57706;56.326;43.882;2022-10-26T03:23:58;101596.84;;;3.21;50.30
70302;BME280;57706;56.326;43.882;2022-10-26T03:26:24;101600.22;;;3.07;50.65
70302;BME280;57706;56.326;43.882;2022-10-26T03:28:50;101605.97;;;3.12;50.33
70302;BME280;57706;56.326;43.882;2022-10-26T03:31:16;101607.31;;;3.20;49.75
70302;BME280;57706;56.326;43.882;2022-10-26T03:33:41;101607.16;;;3.07;49.35
70302;BME280;57706;56.326;43.882;2022-10-26T03:36:08;101606.91;;;2.95;50.49
70302;BME280;57706;56.326;43.882;2022-10-26T03:38:34;101605.88;;;2.98;50.92
70302;BME280;57706;56.326;43.882;2022-10-26T03:40:59;101607.38;;;2.86;50.61
70302;BME280;57706;56.326;43.882;2022-10-26T03:43:26;101612.44;;;2.89;50.57
70302;BME280;57706;56.326;43.882;2022-10-26T03:45:51;101608.59;;;2.96;50.33
70302;BME280;57706;56.326;43.882;2022-10-26T03:48:17;101615.78;;;2.91;51.13
70302;BME280;57706;56.326;43.882;2022-10-26T03:50:43;101614.59;;;2.81;51.42
70302;BME280;57706;56.326;43.882;2022-10-26T03:53:09;101616.59;;;2.75;51.16
70302;BME280;57706;56.326;43.882;2022-10-26T03:55:53;101616.44;;;2.79;51.21
70302;BME280;57706;56.326;43.882;2022-10-26T03:58:38;101621.53;;;2.80;50.95
70302;BME280;57706;56.326;43.882;2022-10-26T04:01:22;101625.41;;;2.89;50.93
70302;BME280;57706;56.326;43.882;2022-10-26T04:03:48;101628.50;;;2.96;50.66
70302;BME280;57706;56.326;43.882;2022-10-26T04:06:14;101623.00;;;3.02;50.14
70302;BME280;57706;56.326;43.882;2022-10-26T04:08:39;101632.22;;;3.08;49.88
70302;BME280;57706;56.326;43.882;2022-10-26T04:11:05;101637.72;;;3.01;49.85
70302;BME280;57706;56.326;43.882;2022-10-26T04:13:31;101636.06;;;3.00;49.53
70302;BME280;57706;56.326;43.882;2022-10-26T04:15:57;101640.06;;;2.90;49.95
70302;BME280;57706;56.326;43.882;2022-10-26T04:18:23;101643.16;;;2.81;50.18
70302;BME280;57706;56.326;43.882;2022-10-26T04:21:08;101638.09;;;2.61;50.34
70302;BME280;57706;56.326;43.882;2022-10-26T04:23:34;101640.72;;;2.78;49.79
70302;BME280;57706;56.326;43.882;2022-10-26T04:25:59;101650.28;;;2.93;48.93
70302;BME280;57706;56.326;43.882;2022-10-26T04:28:25;101641.91;;;2.88;49.20
70302;BME280;57706;56.326;43.882;2022-10-26T04:30:51;101649.75;;;2.70;49.52
70302;BME280;57706;56.326;43.882;2022-10-26T04:33:35;101647.38;;;2.99;49.43
70302;BME280;57706;56.326;43.882;2022-10-26T04:36:01;101652.50;;;3.01;48.95
70302;BME280;57706;56.326;43.882;2022-10-26T04:38:27;101654.00;;;3.05;49.15
70302;BME280;57706;56.326;43.882;2022-10-26T04:40:53;101657.16;;;2.94;49.43
70302;BME280;57706;56.326;43.882;2022-10-26T04:43:18;101659.66;;;2.80;49.49
70302;BME280;57706;56.326;43.882;2022-10-26T04:45:44;101660.84;;;2.90;49.29
70302;BME280;57706;56.326;43.882;2022-10-26T04:48:11;101658.13;;;2.75;49.81
70302;BME280;57706;56.326;43.882;2022-10-26T04:50:38;101658.84;;;2.95;49.19
70302;BME280;57706;56.326;43.882;2022-10-26T04:53:06;101658.50;;;3.01;48.67
70302;BME280;57706;56.326;43.882;2022-10-26T04:56:00;101661.28;;;2.98;48.70
70302;BME280;57706;56.326;43.882;2022-10-26T04:58:29;101674.13;;;3.17;48.42
70302;BME280;57706;56.326;43.882;2022-10-26T05:00:55;101663.91;;;3.30;48.13
70302;BME280;57706;56.326;43.882;2022-10-26T05:03:21;101672.13;;;3.39;48.68
70302;BME280;57706;56.326;43.882;2022-10-26T05:05:47;101677.41;;;3.53;48.78
70302;BME280;57706;56.326;43.882;2022-10-26T05:08:14;101673.19;;;3.35;48.68
70302;BME280;57706;56.326;43.882;2022-10-26T05:10:39;101674.41;;;3.45;48.47
70302;BME280;57706;56.326;43.882;2022-10-26T05:13:05;101676.91;;;3.63;47.18
70302;BME280;57706;56.326;43.882;2022-10-26T05:15:31;101670.34;;;3.71;46.95
70302;BME280;57706;56.326;43.882;2022-10-26T05:18:02;101671.44;;;3.51;48.03
70302;BME280;57706;56.326;43.882;2022-10-26T05:20:31;101673.28;;;3.49;47.74
70302;BME280;57706;56.326;43.882;2022-10-26T05:22:58;101674.94;;;3.18;48.24
70302;BME280;57706;56.326;43.882;2022-10-26T05:25:27;101677.41;;;3.53;47.60
70302;BME280;57706;56.326;43.882;2022-10-26T05:28:00;101677.47;;;3.84;46.64
70302;BME280;57706;56.326;43.882;2022-10-26T05:30:27;101671.59;;;3.64;47.32
70302;BME280;57706;56.326;43.882;2022-10-26T05:32:54;101676.59;;;3.83;47.34
70302;BME280;57706;56.326;43.882;2022-10-26T05:35:20;101675.13;;;3.79;47.42
70302;BME280;57706;56.326;43.882;2022-10-26T05:37:46;101672.63;;;3.62;47.71
70302;BME280;57706;56.326;43.882;2022-10-26T05:40:12;101676.50;;;3.54;48.36
70302;BME280;57706;56.326;43.882;2022-10-26T05:42:38;101671.94;;;3.42;48.49
70302;BME280;57706;56.326;43.882;2022-10-26T05:45:04;101674.94;;;3.82;47.21
70302;BME280;57706;56.326;43.882;2022-10-26T05:47:30;101680.53;;;3.91;47.32
70302;BME280;57706;56.326;43.882;2022-10-26T05:49:55;101675.94;;;3.80;47.17
70302;BME280;57706;56.326;43.882;2022-10-26T05:52:21;101681.13;;;3.96;46.66
70302;BME280;57706;56.326;43.882;2022-10-26T05:54:47;101689.19;;;3.91;46.61
70302;BME280;57706;56.326;43.882;2022-10-26T05:57:13;101684.28;;;4.01;46.91
70302;BME280;57706;56.326;43.882;2022-10-26T05:59:39;101687.25;;;3.95;46.47
70302;BME280;57706;56.326;43.882;2022-10-26T06:04:43;101688.00;;;3.97;46.17
70302;BME280;57706;56.326;43.882;2022-10-26T06:07:14;101694.47;;;3.90;46.37
70302;BME280;57706;56.326;43.882;2022-10-26T06:09:41;101696.44;;;3.70;46.48
70302;BME280;57706;56.326;43.882;2022-10-26T06:12:08;101702.47;;;3.54;46.57
70302;BME280;57706;56.326;43.882;2022-10-26T06:14:35;101702.94;;;3.77;46.82
70302;BME280;57706;56.326;43.882;2022-10-26T06:18:12;101698.41;;;3.97;46.15
70302;BME280;57706;56.326;43.882;2022-10-26T06:23:37;101705.56;;;4.24;45.09
70302;BME280;57706;56.326;43.882;2022-10-26T06:26:20;101706.41;;;4.24;45.50
70302;BME280;57706;56.326;43.882;2022-10-26T06:31:39;101703.63;;;3.97;46.51
70302;BME280;57706;56.326;43.882;2022-10-26T06:34:05;101707.97;;;4.27;46.07
70302;BME280;57706;56.326;43.882;2022-10-26T06:36:32;101715.31;;;4.20;46.43
70302;BME280;57706;56.326;43.882;2022-10-26T06:39:06;101717.56;;;4.26;46.40
70302;BME280;57706;56.326;43.882;2022-10-26T06:41:34;101724.50;;;4.26;45.97
70302;BME280;57706;56.326;43.882;2022-10-26T06:44:01;101714.03;;;4.73;44.51
70302;BME280;57706;56.326;43.882;2022-10-26T06:49:26;101714.28;;;4.23;46.49
70302;BME280;57706;56.326;43.882;2022-10-26T06:51:58;101724.56;;;4.10;47.51
70302;BME280;57706;56.326;43.882;2022-10-26T06:57:02;101719.16;;;4.29;47.21
70302;BME280;57706;56.326;43.882;2022-10-26T06:59:39;101725.88;;;4.48;47.34
70302;BME280;57706;56.326;43.882;2022-10-26T07:02:10;101718.78;;;4.35;47.34
70302;BME280;57706;56.326;43.882;2022-10-26T07:04:36;101702.84;;;4.56;47.77
70302;BME280;57706;56.326;43.882;2022-10-26T07:07:02;101709.94;;;4.83;46.55
70302;BME280;57706;56.326;43.882;2022-10-26T07:09:47;101710.88;;;4.82;45.72
70302;BME280;57706;56.326;43.882;2022-10-26T07:12:13;101721.78;;;4.44;46.15
70302;BME280;57706;56.326;43.882;2022-10-26T07:14:39;101716.56;;;4.44;45.01
70302;BME280;57706;56.326;43.882;2022-10-26T07:17:05;101713.31;;;4.09;46.04
70302;BME280;57706;56.326;43.882;2022-10-26T07:19:31;101712.66;;;4.36;45.82
70302;BME280;57706;56.326;43.882;2022-10-26T07:21:57;101709.56;;;4.75;45.32
70302;BME280;57706;56.326;43.882;2022-10-26T07:24:27;101714.66;;;5.05;44.74
70302;BME280;57706;56.326;43.882;2022-10-26T07:26:54;101710.31;;;4.91;44.62
70302;BME280;57706;56.326;43.882;2022-10-26T07:29:25;101715.31;;;5.09;43.96
70302;BME280;57706;56.326;43.882;2022-10-26T07:31:51;101712.56;;;5.12;44.42
70302;BME280;57706;56.326;43.882;2022-10-26T07:34:17;101717.75;;;4.83;44.22
70302;BME280;57706;56.326;43.882;2022-10-26T07:36:43;101720.53;;;5.09;43.66
70302;BME280;57706;56.326;43.882;2022-10-26T07:39:27;101720.00;;;5.04;44.09
70302;BME280;57706;56.326;43.882;2022-10-26T07:41:53;101727.41;;;5.24;44.05
70302;BME280;57706;56.326;43.882;2022-10-26T07:44:18;101720.69;;;5.35;44.03
70302;BME280;57706;56.326;43.882;2022-10-26T07:46:44;101720.38;;;4.98;44.45
70302;BME280;57706;56.326;43.882;2022-10-26T07:49:28;101724.16;;;4.77;45.35
70302;BME280;57706;56.326;43.882;2022-10-26T07:51:54;101727.16;;;4.86;44.71
70302;BME280;57706;56.326;43.882;2022-10-26T07:54:20;101720.00;;;5.04;44.57
70302;BME280;57706;56.326;43.882;2022-10-26T07:56:49;101723.13;;;5.09;44.14
70302;BME280;57706;56.326;43.882;2022-10-26T07:59:15;101738.41;;;5.15;43.95
70302;BME280;57706;56.326;43.882;2022-10-26T08:01:41;101730.41;;;5.04;44.42
70302;BME280;57706;56.326;43.882;2022-10-26T08:04:07;101736.44;;;4.30;46.05
70302;BME280;57706;56.326;43.882;2022-10-26T08:06:33;101738.31;;;4.43;45.42
70302;BME280;57706;56.326;43.882;2022-10-26T08:08:59;101730.75;;;4.68;45.41
70302;BME280;57706;56.326;43.882;2022-10-26T08:11:25;101734.13;;;5.29;44.59
70302;BME280;57706;56.326;43.882;2022-10-26T08:13:52;101735.72;;;7.69;40.47
70302;BME280;57706;56.326;43.882;2022-10-26T08:16:19;101730.34;;;7.47;38.64
70302;BME280;57706;56.326;43.882;2022-10-26T08:18:48;101726.88;;;12.08;31.88
70302;BME280;57706;56.326;43.882;2022-10-26T08:21:14;101725.13;;;10.12;33.56
70302;BME280;57706;56.326;43.882;2022-10-26T08:23:40;101743.50;;;8.07;37.19
70302;BME280;57706;56.326;43.882;2022-10-26T08:26:07;101735.53;;;7.09;38.72
70302;BME280;57706;56.326;43.882;2022-10-26T08:28:33;101744.66;;;5.97;41.15
70302;BME280;57706;56.326;43.882;2022-10-26T08:30:59;101732.41;;;6.39;40.41
70302;BME280;57706;56.326;43.882;2022-10-26T08:33:25;101732.25;;;5.02;44.01
70302;BME280;57706;56.326;43.882;2022-10-26T08:35:55;101738.97;;;5.77;42.09
70302;BME280;57706;56.326;43.882;2022-10-26T08:38:39;101726.78;;;6.05;41.57
70302;BME280;57706;56.326;43.882;2022-10-26T08:41:07;101729.09;;;6.10;41.47
70302;BME280;57706;56.326;43.882;2022-10-26T08:48:45;101733.50;;;5.95;41.41
70302;BME280;57706;56.326;43.882;2022-10-26T08:51:18;101739.03;;;5.90;41.93
70302;BME280;57706;56.326;43.882;2022-10-26T08:54:09;101735.34;;;4.94;43.47
70302;BME280;57706;56.326;43.882;2022-10-26T08:56:42;101742.16;;;5.11;43.10
70302;BME280;57706;56.326;43.882;2022-10-26T08:59:16;101735.31;;;4.65;44.09
70302;BME280;57706;56.326;43.882;2022-10-26T09:01:44;101724.47;;;4.87;44.04
70302;BME280;57706;56.326;43.882;2022-10-26T09:04:11;101742.88;;;4.99;43.92
70302;BME280;57706;56.326;43.882;2022-10-26T09:09:40;101739.19;;;5.03;43.84
70302;BME280;57706;56.326;43.882;2022-10-26T09:12:17;101735.97;;;4.83;44.97
70302;BME280;57706;56.326;43.882;2022-10-26T09:15:07;101725.94;;;4.91;44.79
70302;BME280;57706;56.326;43.882;2022-10-26T09:18:06;101727.25;;;5.13;44.35
70302;BME280;57706;56.326;43.882;2022-10-26T09:23:14;101742.84;;;4.55;45.62
70302;BME280;57706;56.326;43.882;2022-10-26T09:25:48;101733.91;;;4.59;45.50
70302;BME280;57706;56.326;43.882;2022-10-26T09:28:36;101734.53;;;4.18;46.55
70302;BME280;57706;56.326;43.882;2022-10-26T09:31:03;101737.97;;;4.49;46.49
70302;BME280;57706;56.326;43.882;2022-10-26T09:33:34;101735.19;;;4.52;46.60
70302;BME280;57706;56.326;43.882;2022-10-26T09:36:04;101735.78;;;4.72;46.58
70302;BME280;57706;56.326;43.882;2022-10-26T09:39:11;101737.09;;;4.79;45.83
70302;BME280;57706;56.326;43.882;2022-10-26T09:41:54;101738.41;;;4.86;45.31
70302;BME280;57706;56.326;43.882;2022-10-26T09:44:42;101733.28;;;4.70;45.50
70302;BME280;57706;56.326;43.882;2022-10-26T09:50:26;101738.31;;;4.12;46.62
70302;BME280;57706;56.326;43.882;2022-10-26T09:52:53;101741.66;;;4.30;46.65
70302;BME280;57706;56.326;43.882;2022-10-26T09:55:19;101743.03;;;4.66;45.96
70302;BME280;57706;56.326;43.882;2022-10-26T09:57:51;101746.56;;;4.65;46.51
70302;BME280;57706;56.326;43.882;2022-10-26T10:00:20;101753.53;;;4.34;46.84
70302;BME280;57706;56.326;43.882;2022-10-26T10:02:52;101746.91;;;4.59;46.45
70302;BME280;57706;56.326;43.882;2022-10-26T10:05:21;101745.34;;;4.71;46.64
70302;BME280;57706;56.326;43.882;2022-10-26T10:07:48;101745.09;;;4.61;46.66
70302;BME280;57706;56.326;43.882;2022-10-26T10:10:17;101744.72;;;4.37;47.35
70302;BME280;57706;56.326;43.882;2022-10-26T10:12:44;101754.25;;;4.22;47.50
70302;BME280;57706;56.326;43.882;2022-10-26T10:15:23;101758.81;;;4.49;47.13
70302;BME280;57706;56.326;43.882;2022-10-26T10:17:51;101765.06;;;4.30;47.29
70302;BME280;57706;56.326;43.882;2022-10-26T10:20:28;101762.69;;;4.41;47.04
70302;BME280;57706;56.326;43.882;2022-10-26T10:22:59;101749.59;;;4.12;47.84
70302;BME280;57706;56.326;43.882;2022-10-26T10:25:36;101757.13;;;4.01;47.97
70302;BME280;57706;56.326;43.882;2022-10-26T10:28:26;101756.38;;;3.99;47.81
70302;BME280;57706;56.326;43.882;2022-10-26T10:30:53;101746.28;;;4.25;47.69
70302;BME280;57706;56.326;43.882;2022-10-26T10:33:21;101744.84;;;4.19;48.00
70302;BME280;57706;56.326;43.882;2022-10-26T10:35:50;101750.53;;;4.26;48.58
70302;BME280;57706;56.326;43.882;2022-10-26T10:38:20;101755.13;;;4.06;48.61
70302;BME280;57706;56.326;43.882;2022-10-26T10:40:55;101759.47;;;4.22;48.25
70302;BME280;57706;56.326;43.882;2022-10-26T10:43:22;101768.88;;;4.08;48.20
70302;BME280;57706;56.326;43.882;2022-10-26T10:45:51;101758.81;;;4.02;48.55
70302;BME280;57706;56.326;43.882;2022-10-26T10:48:26;101758.81;;;4.18;48.13
70302;BME280;57706;56.326;43.882;2022-10-26T10:50:58;101755.59;;;4.13;48.70
70302;BME280;57706;56.326;43.882;2022-10-26T10:53:34;101761.34;;;3.88;49.58
70302;BME280;57706;56.326;43.882;2022-10-26T10:59:22;101754.78;;;3.96;48.46
70302;BME280;57706;56.326;43.882;2022-10-26T11:07:03;101762.44;;;3.83;49.21
70302;BME280;57706;56.326;43.882;2022-10-26T11:09:33;101759.31;;;3.93;49.25
70302;BME280;57706;56.326;43.882;2022-10-26T11:12:14;101760.84;;;3.97;48.72
70302;BME280;57706;56.326;43.882;2022-10-26T11:14:44;101763.53;;;3.79;49.41
70302;BME280;57706;56.326;43.882;2022-10-26T11:17:15;101756.50;;;3.81;49.48
70302;BME280;57706;56.326;43.882;2022-10-26T11:20:17;101758.66;;;4.05;48.95
70302;BME280;57706;56.326;43.882;2022-10-26T11:23:00;101756.97;;;3.88;49.00
70302;BME280;57706;56.326;43.882;2022-10-26T11:25:39;101756.47;;;3.33;50.16
70302;BME280;57706;56.326;43.882;2022-10-26T11:30:56;101766.22;;;3.62;49.36
70302;BME280;57706;56.326;43.882;2022-10-26T11:33:29;101756.47;;;3.33;50.11
70302;BME280;57706;56.326;43.882;2022-10-26T11:36:03;101751.78;;;3.72;49.12
70302;BME280;57706;56.326;43.882;2022-10-26T11:38:47;101750.25;;;3.36;50.06
70302;BME280;57706;56.326;43.882;2022-10-26T11:41:18;101744.16;;;3.37;49.98
70302;BME280;57706;56.326;43.882;2022-10-26T11:43:46;101739.47;;;3.43;50.46
70302;BME280;57706;56.326;43.882;2022-10-26T11:46:33;101746.25;;;3.46;49.83
70302;BME280;57706;56.326;43.882;2022-10-26T11:49:08;101755.13;;;3.42;50.23
70302;BME280;57706;56.326;43.882;2022-10-26T11:51:52;101751.94;;;3.37;49.88
70302;BME280;57706;56.326;43.882;2022-10-26T11:54:26;101739.84;;;3.36;50.32
70302;BME280;57706;56.326;43.882;2022-10-26T11:56:54;101739.84;;;3.36;50.56
70302;BME280;57706;56.326;43.882;2022-10-26T11:59:24;101742.72;;;3.47;50.28
70302;BME280;57706;56.326;43.882;2022-10-26T12:01:55;101735.44;;;3.70;49.34
70302;BME280;57706;56.326;43.882;2022-10-26T12:04:24;101737.69;;;3.60;49.54
70302;BME280;57706;56.326;43.882;2022-10-26T12:06:53;101728.22;;;3.75;49.71
70302;BME280;57706;56.326;43.882;2022-10-26T12:09:28;101728.81;;;3.32;50.33
70302;BME280;57706;56.326;43.882;2022-10-26T12:17:05;101739.38;;;3.61;49.67
70302;BME280;57706;56.326;43.882;2022-10-26T12:22:37;101747.38;;;3.24;50.52
70302;BME280;57706;56.326;43.882;2022-10-26T12:35:34;101734.16;;;3.29;50.22
70302;BME280;57706;56.326;43.882;2022-10-26T12:41:06;101731.97;;;3.21;50.24
70302;BME280;57706;56.326;43.882;2022-10-26T12:43:34;101718.69;;;3.10;50.81
70302;BME280;57706;56.326;43.882;2022-10-26T12:48:50;101721.34;;;2.92;51.46
70302;BME280;57706;56.326;43.882;2022-10-26T12:54:14;101715.69;;;3.17;50.99
70302;BME280;57706;56.326;43.882;2022-10-26T12:59:29;101707.31;;;2.61;52.36
70302;BME280;57706;56.326;43.882;2022-10-26T13:07:21;101708.00;;;2.65;52.59
70302;BME280;57706;56.326;43.882;2022-10-26T13:09:55;101711.44;;;2.83;52.10
70302;BME280;57706;56.326;43.882;2022-10-26T13:12:22;101708.22;;;2.78;52.74
70302;BME280;57706;56.326;43.882;2022-10-26T13:14:59;101696.59;;;2.85;52.54
70302;BME280;57706;56.326;43.882;2022-10-26T13:17:28;101697.69;;;2.81;52.67
70302;BME280;57706;56.326;43.882;2022-10-26T13:20:16;101702.81;;;2.82;52.83
70302;BME280;57706;56.326;43.882;2022-10-26T13:22:46;101710.72;;;2.45;53.51
70302;BME280;57706;56.326;43.882;2022-10-26T13:25:26;101711.47;;;2.30;53.53
70302;BME280;57706;56.326;43.882;2022-10-26T13:28:03;101702.16;;;2.26;53.61
70302;BME280;57706;56.326;43.882;2022-10-26T13:32:59;101705.72;;;2.05;54.44
70302;BME280;57706;56.326;43.882;2022-10-26T13:35:27;101716.50;;;2.33;53.85
70302;BME280;57706;56.326;43.882;2022-10-26T13:37:54;101706.44;;;1.90;54.85
70302;BME280;57706;56.326;43.882;2022-10-26T13:40:24;101706.06;;;1.80;55.50
70302;BME280;57706;56.326;43.882;2022-10-26T13:42:56;101712.25;;;1.77;56.00
70302;BME280;57706;56.326;43.882;2022-10-26T13:46:01;101711.97;;;1.64;56.30
70302;BME280;57706;56.326;43.882;2022-10-26T13:48:35;101700.41;;;1.72;56.50
70302;BME280;57706;56.326;43.882;2022-10-26T13:51:09;101708.19;;;1.72;56.53
70302;BME280;57706;56.326;43.882;2022-10-26T13:53:44;101708.66;;;1.80;56.27
70302;BME280;57706;56.326;43.882;2022-10-26T13:56:32;101708.31;;;1.69;56.79
70302;BME280;57706;56.326;43.882;2022-10-26T13:59:09;101704.25;;;1.82;56.46
70302;BME280;57706;56.326;43.882;2022-10-26T14:01:35;101703.28;;;1.65;56.99
70302;BME280;57706;56.326;43.882;2022-10-26T14:04:25;101708.00;;;1.38;58.08
70302;BME280;57706;56.326;43.882;2022-10-26T14:06:51;101707.56;;;1.67;57.12
70302;BME280;57706;56.326;43.882;2022-10-26T14:09:19;101717.28;;;1.61;57.22
70302;BME280;57706;56.326;43.882;2022-10-26T14:11:53;101707.50;;;1.49;57.76
70302;BME280;57706;56.326;43.882;2022-10-26T14:14:25;101717.38;;;1.41;57.94
70302;BME280;57706;56.326;43.882;2022-10-26T14:16:53;101713.66;;;1.46;57.98
70302;BME280;57706;56.326;43.882;2022-10-26T14:19:39;101710.16;;;1.67;57.57
70302;BME280;57706;56.326;43.882;2022-10-26T14:22:06;101720.25;;;1.54;58.01
70302;BME280;57706;56.326;43.882;2022-10-26T14:24:36;101710.72;;;1.54;58.15
70302;BME280;57706;56.326;43.882;2022-10-26T14:27:14;101704.16;;;1.47;58.29
70302;BME280;57706;56.326;43.882;2022-10-26T14:29:40;101718.13;;;1.23;59.31
70302;BME280;57706;56.326;43.882;2022-10-26T14:32:26;101708.69;;;1.42;58.82
70302;BME280;57706;56.326;43.882;2022-10-26T14:34:53;101710.84;;;1.32;59.01
70302;BME280;57706;56.326;43.882;2022-10-26T14:40:21;101715.75;;;1.38;58.75
70302;BME280;57706;56.326;43.882;2022-10-26T14:42:54;101710.56;;;1.19;59.30
70302;BME280;57706;56.326;43.882;2022-10-26T14:45:27;101701.59;;;1.07;59.96
70302;BME280;57706;56.326;43.882;2022-10-26T14:47:55;101707.84;;;1.22;59.54
70302;BME280;57706;56.326;43.882;2022-10-26T14:50:23;101706.97;;;1.02;59.92
70302;BME280;57706;56.326;43.882;2022-10-26T14:52:53;101707.38;;;0.93;60.50
70302;BME280;57706;56.326;43.882;2022-10-26T14:55:21;101712.53;;;1.14;59.76
70302;BME280;57706;56.326;43.882;2022-10-26T14:57:51;101711.47;;;1.18;59.76
70302;BME280;57706;56.326;43.882;2022-10-26T15:02:45;101708.75;;;0.81;60.85
70302;BME280;57706;56.326;43.882;2022-10-26T15:05:28;101712.50;;;0.94;60.32